ADDS METAR Data INFO
IDs: Format: Raw Decoded Include TAF

Data at: 1555 UTC 12 Dec 2017

KCOU 121454Z 32010KT 10SM CLR M04/M09 A3029 RMK AO2 SLP264 T10441094 51009
KCOU 121354Z 30008KT 10SM CLR M06/M09 A3028 RMK AO2 SLP260 T10561089
KCOU 121254Z 31008KT 10SM CLR M06/M09 A3028 RMK AO2 SLP260 T10561089
KCOU 121154Z AUTO 32010KT 10SM CLR M05/M08 A3026 RMK AO2 SLP253 T10501083 10028 21050 53018
KCOU 121123Z AUTO 32013KT 10SM SCT021 M04/M08 A3025 RMK AO2 T10441083
KCOU 121054Z AUTO 32015KT 10SM OVC023 M03/M08 A3024 RMK AO2 SLP245 T10331078
KCOU 121013Z AUTO 32012KT 10SM BKN024 M03/M07 A3022 RMK AO2 T10281072
KCOU 120954Z AUTO 32012KT 10SM FEW024 M02/M07 A3022 RMK AO2 SLP238 T10221072
KCOU 120854Z AUTO 33016G26KT 10SM FEW027 M01/M07 A3021 RMK AO2 PK WND 31026/0813 SLP232 T10111067 53019
KCOU 120754Z AUTO 32017G25KT 10SM OVC027 01/M05 A3017 RMK AO2 PK WND 33028/0733 SLP221 T00111050
KCOU 120654Z AUTO 32020G27KT 10SM OVC025 03/M03 A3015 RMK AO2 PK WND 34027/0609 SLP214 T00281033
KCOU 120554Z AUTO 33022KT 10SM OVC027 03/M02 A3015 RMK AO2 PK WND 33032/0459 SLP211 T00331022 10094 20033 401331011 51032
KCOU 120454Z AUTO 33024G29KT 10SM BKN022 OVC031 04/M01 A3012 RMK AO2 PK WND 32030/0431 SLP201 T00441011
KCOU 120406Z AUTO 31019G29KT 10SM BKN029 OVC041 06/00 A3008 RMK AO2 PK WND 33029/0357 T00560000
KCOU 120354Z AUTO 32018G28KT 10SM SCT029 OVC041 06/01 A3008 RMK AO2 PK WND 31028/0342 SLP187 T00610006
KCOU 120254Z 32020KT 10SM BKN032 BKN040 OVC049 07/01 A3005 RMK AO2 PK WND 32028/0159 SLP178 T00720006 51028
KCOU 120154Z 32016KT 10SM OVC036 08/01 A3003 RMK AO2 SLP173 T00780006
KCOU 120054Z 32017G25KT 10SM OVC041 08/01 A3000 RMK AO2 PK WND 32031/0003 SLP164 T00830006
KCOU 112354Z 31018G30KT 10SM OVC048 09/M01 A2996 RMK AO2 PK WND 31035/2338 SLP150 T00941006 10133 20094 51028
KCOU 112254Z 31020G30KT 10SM SCT055 10/M01 A2994 RMK AO2 PK WND 30034/2203 SLP141 T01001011
KCOU 112154Z 30026G38KT 10SM BKN065 11/M02 A2991 RMK AO2 PK WND 30038/2154 SLP132 T01111022
KCOU 112054Z 32023G34KT 10SM FEW065 12/M02 A2988 RMK AO2 PK WND 31037/2007 SLP120 T01221022 53003
KCOU 111954Z 29023G32KT 10SM CLR 13/M03 A2985 RMK AO2 PK WND 28034/1926 SLP111 T01281033
KCOU 111854Z 28018G28KT 10SM CLR 12/M04 A2985 RMK AO2 PK WND 30029/1808 SLP111 T01171044
KCOU 111754Z 29018G29KT 10SM CLR 11/M07 A2987 RMK AO2 PK WND 29038/1734 SLP117 T01061067 10122 21011 56007
KCOU 111654Z 28015G26KT 10SM CLR 11/M07 A2987 RMK AO2 PK WND 26029/1613 SLP117 T01111067
KCOU 111554Z 25015KT 10SM CLR 10/M06 A2987 RMK AO2 SLP115 T01001056
KCOU 111454Z 24014KT 10SM CLR 06/M04 A2989 RMK AO2 SLP125 T00561044 58022
KCOU 111354Z 22010KT 10SM CLR 03/M03 A2991 RMK AO2 SLP133 T00281028
KCOU 111254Z 20008KT 10SM CLR 00/M04 A2994 RMK AO2 SLP144 T00001039
KCOU 111154Z AUTO 17008KT 10SM CLR 00/M04 A2996 RMK AO2 SLP149 T00001039 10039 21006 58033
KCOU 111054Z AUTO 19008KT 10SM CLR 00/M04 A3000 RMK AO2 SLP164 T00001044
KCOU 110954Z AUTO 17005KT 10SM CLR 02/M04 A3003 RMK AO2 SLP171 T00171039
KCOU 110854Z AUTO 21008KT 10SM CLR 01/M04 A3006 RMK AO2 SLP182 T00061044 58019
KCOU 110754Z AUTO 23008KT 10SM CLR 01/M04 A3009 RMK AO2 SLP191 T00111044
KCOU 110654Z AUTO 22005KT 10SM CLR 03/M04 A3010 RMK AO2 SLP195 T00281039
KCOU 110554Z AUTO 21006KT 10SM CLR 02/M04 A3012 RMK AO2 SLP202 T00221039 10078 20022 401221072 58008
KCOU 110454Z AUTO 26005KT 10SM CLR 06/M04 A3013 RMK AO2 SLP205 T00561039